BMI weather

Central Illinois Regional Airport at Bloomington-Normal
Bloomington/Normal, Illinois, United States

Public forecast

Using degrees Fahrenheit for public forecast. Weather courtesy of forecast.io.

Current aviation weather report (METAR) for Central Illinois Regional Airport at Bloomington-Normal

Retrieved 2020/04/09 12:56 UTC (49 minutes ago):

KBMI 091256Z 31020G24KT 10SM CLR 05/M07 A2990 RMK AO2 PK WND 30027/1237 SLP126 T00501067

Aviation forecast (TAF) for Central Illinois Regional Airport at Bloomington-Normal

Retrieved 2020/04/09 12:22 UTC (1 hour ago):

TAF KBMI 091120Z 0912/1012 30011G20KT P6SM SKC FM091600 30021G32KT P6SM FEW150 FM092000 30023G38KT P6SM VCSH BKN060 FM100300 30012KT P6SM SKC